Time;durP1;ratioP1;P1;durP2;ratioP2;P2;SDS_P1;SDS_P2;PMS_P1;PMS_P2;Temp;Humidity;BMP_temperature;BMP_pressure;BME280_temperature;BME280_humidity;BME280_pressure;Samples;Min_cycle;Max_cycle;Signal;HPM_P1;HPM_P2
2023/09/17 00:01:10;;;;;;;22.40;16.45;;;15.80;99.90;;;;;;5155091;27;20482;-82
2023/09/17 00:03:36;;;;;;;22.42;16.38;;;15.80;99.90;;;;;;5136964;27;20047;-82
2023/09/17 00:06:02;;;;;;;20.05;15.95;;;15.70;99.90;;;;;;5154564;27;20459;-81
2023/09/17 00:08:28;;;;;;;19.27;16.17;;;15.70;99.90;;;;;;5154857;27;20118;-81
2023/09/17 00:10:54;;;;;;;20.92;16.13;;;15.70;99.90;;;;;;5119927;27;20047;-82
2023/09/17 00:13:20;;;;;;;21.27;16.20;;;15.70;99.90;;;;;;5136579;27;20039;-82
2023/09/17 00:15:46;;;;;;;18.48;15.10;;;15.80;99.90;;;;;;5155336;27;20047;-81
2023/09/17 00:18:12;;;;;;;20.00;15.60;;;15.70;99.90;;;;;;5136935;27;20042;-82
2023/09/17 00:20:38;;;;;;;21.40;16.60;;;15.80;99.90;;;;;;5155264;27;20046;-82
2023/09/17 00:23:04;;;;;;;19.05;15.27;;;15.80;99.90;;;;;;5136402;27;20054;-83
2023/09/17 00:25:30;;;;;;;20.27;15.23;;;15.80;99.90;;;;;;5136661;27;20394;-83
2023/09/17 00:27:56;;;;;;;21.98;16.23;;;15.70;99.90;;;;;;5136564;27;20121;-83
2023/09/17 00:30:21;;;;;;;20.40;16.33;;;15.70;99.90;;;;;;5127743;28;20494;-83
2023/09/17 00:32:47;;;;;;;22.67;16.23;;;15.70;99.90;;;;;;5134288;28;20483;-82
2023/09/17 00:35:13;;;;;;;20.33;16.13;;;15.70;99.90;;;;;;5116350;28;20051;-84
2023/09/17 00:37:40;;;;;;;19.23;15.70;;;15.60;99.90;;;;;;5102147;27;20493;-83
2023/09/17 00:40:09;;;;;;;18.00;15.38;;;15.60;99.90;;;;;;5136612;27;20043;-83
2023/09/17 00:42:36;;;;;;;20.90;15.07;;;15.60;99.90;;;;;;5136662;27;20050;-83
2023/09/17 00:45:02;;;;;;;20.23;15.27;;;15.50;99.90;;;;;;5154885;27;20129;-82
2023/09/17 00:47:29;;;;;;;18.88;14.98;;;15.50;99.90;;;;;;5136499;27;20050;-82
2023/09/17 00:49:55;;;;;;;20.35;15.55;;;15.50;99.90;;;;;;5136705;27;20068;-83
2023/09/17 00:52:21;;;;;;;20.27;15.38;;;15.50;99.90;;;;;;5154712;27;20043;-81
2023/09/17 00:54:49;;;;;;;19.08;15.30;;;15.50;99.90;;;;;;5154806;27;20546;-82
2023/09/17 00:57:16;;;;;;;18.20;15.13;;;15.50;99.90;;;;;;5136879;27;20376;-82
2023/09/17 00:59:47;;;;;;;20.63;15.65;;;15.50;99.90;;;;;;5102628;27;20086;-82
2023/09/17 01:02:18;;;;;;;18.35;14.93;;;15.50;99.90;;;;;;5155022;27;20046;-82
2023/09/17 01:04:49;;;;;;;20.15;15.68;;;15.50;99.90;;;;;;5136251;27;20047;-82
2023/09/17 01:07:19;;;;;;;18.40;15.68;;;15.50;99.90;;;;;;5136375;27;20132;-83
2023/09/17 01:09:45;;;;;;;21.17;15.88;;;15.50;99.90;;;;;;5155178;27;20427;-82
2023/09/17 01:12:12;;;;;;;19.80;15.68;;;15.50;99.90;;;;;;5154589;27;20046;-83
2023/09/17 01:14:38;;;;;;;17.70;14.98;;;15.50;99.90;;;;;;5154573;27;20122;-83
2023/09/17 01:17:08;;;;;;;18.75;14.52;;;15.50;99.90;;;;;;5135876;27;20046;-82
2023/09/17 01:19:34;;;;;;;19.75;14.65;;;15.40;99.90;;;;;;5158097;27;20043;-83
2023/09/17 01:22:43;;;;;;;17.85;15.15;;;15.40;99.90;;;;;;5140023;27;20095;-83
2023/09/17 01:25:15;;;;;;;19.08;15.52;;;15.30;99.90;;;;;;5123025;27;20133;-83
2023/09/17 01:27:45;;;;;;;18.88;14.88;;;15.30;99.90;;;;;;5140463;27;20047;-83
2023/09/17 01:30:21;;;;;;;18.45;14.80;;;15.30;99.90;;;;;;5132043;27;20089;-82
2023/09/17 01:32:47;;;;;;;18.55;14.48;;;15.30;99.90;;;;;;5104084;27;20054;-83
2023/09/17 01:35:15;;;;;;;19.73;15.82;;;15.30;99.90;;;;;;5137403;27;20476;-82
2023/09/17 01:37:54;;;;;;;19.05;15.43;;;15.30;99.90;;;;;;5141091;27;20475;-83
2023/09/17 01:40:21;;;;;;;18.15;14.85;;;15.30;99.90;;;;;;5158294;27;20108;-82
2023/09/17 01:42:48;;;;;;;19.13;14.55;;;15.20;99.90;;;;;;5157902;27;20561;-82
2023/09/17 01:45:18;;;;;;;18.85;14.40;;;15.30;99.90;;;;;;5139764;27;20053;-83
2023/09/17 01:47:48;;;;;;;22.67;15.00;;;15.30;99.90;;;;;;5139156;27;20394;-82
2023/09/17 01:50:15;;;;;;;19.15;15.15;;;15.20;99.90;;;;;;5158010;27;20082;-82
2023/09/17 01:52:43;;;;;;;21.10;15.30;;;15.30;99.90;;;;;;5138860;27;20042;-82
2023/09/17 01:55:10;;;;;;;20.35;15.10;;;15.30;99.90;;;;;;5139067;27;20039;-82
2023/09/17 01:57:36;;;;;;;19.50;15.48;;;15.20;99.90;;;;;;5122205;27;20125;-81
2023/09/17 02:00:14;;;;;;;18.75;15.57;;;15.30;99.90;;;;;;5139043;27;20038;-82
2023/09/17 02:02:49;;;;;;;20.00;15.02;;;15.30;99.90;;;;;;5139485;27;20395;-83
2023/09/17 02:05:16;;;;;;;18.50;15.35;;;15.30;99.90;;;;;;5157540;27;20055;-83
2023/09/17 02:07:45;;;;;;;21.30;15.52;;;15.30;99.90;;;;;;5157468;27;20387;-83
2023/09/17 02:10:11;;;;;;;19.20;14.98;;;15.30;99.90;;;;;;5157647;27;20046;-82
2023/09/17 02:12:38;;;;;;;19.23;14.68;;;15.30;99.90;;;;;;5139192;27;20123;-82
2023/09/17 02:15:04;;;;;;;19.75;14.63;;;15.30;99.90;;;;;;5139120;27;20050;-83
2023/09/17 02:17:30;;;;;;;19.40;15.27;;;15.30;99.90;;;;;;5105240;27;20159;-82
2023/09/17 02:19:56;;;;;;;18.67;15.15;;;15.40;99.90;;;;;;5139090;27;20070;-82
2023/09/17 02:22:21;;;;;;;17.20;14.63;;;15.40;99.90;;;;;;5156902;27;20544;-81
2023/09/17 02:24:48;;;;;;;17.65;14.13;;;15.40;99.90;;;;;;5138971;27;20046;-82
2023/09/17 02:27:14;;;;;;;18.58;14.60;;;15.50;99.90;;;;;;5157047;27;20080;-81
2023/09/17 02:29:40;;;;;;;18.10;14.13;;;15.40;99.90;;;;;;5153412;27;20131;-82
2023/09/17 02:32:06;;;;;;;18.77;14.80;;;15.40;99.90;;;;;;5117597;27;20076;-79
2023/09/17 02:34:31;;;;;;;22.27;14.18;;;15.40;99.90;;;;;;5117970;27;20055;-82
2023/09/17 02:36:57;;;;;;;18.73;14.50;;;15.40;99.90;;;;;;5117881;27;20387;-81
2023/09/17 02:39:23;;;;;;;18.77;14.05;;;15.40;99.90;;;;;;5102442;27;20447;-81
2023/09/17 02:41:48;;;;;;;19.33;14.88;;;15.40;99.90;;;;;;5156997;27;20116;-82
2023/09/17 02:44:14;;;;;;;21.45;15.73;;;15.40;99.90;;;;;;5138546;27;20039;-82
2023/09/17 02:46:40;;;;;;;17.90;14.50;;;15.40;99.90;;;;;;5156778;27;20064;-82
2023/09/17 02:49:06;;;;;;;20.58;15.90;;;15.40;99.90;;;;;;5156821;27;20039;-81
2023/09/17 02:51:31;;;;;;;18.83;14.73;;;15.40;99.90;;;;;;5138557;27;20039;-82
2023/09/17 02:53:57;;;;;;;22.55;15.90;;;15.40;99.90;;;;;;5138200;27;20049;-82
2023/09/17 02:56:23;;;;;;;19.33;14.38;;;15.40;99.90;;;;;;5138470;27;20094;-82
2023/09/17 02:58:48;;;;;;;20.83;14.95;;;15.40;99.90;;;;;;5137701;27;20050;-82
2023/09/17 03:01:17;;;;;;;19.80;14.90;;;15.40;99.90;;;;;;5156592;27;20134;-82
2023/09/17 03:03:44;;;;;;;18.85;15.00;;;15.40;99.90;;;;;;5121367;27;20047;-82
2023/09/17 03:06:10;;;;;;;17.80;14.43;;;15.40;99.90;;;;;;5138038;27;20045;-81
2023/09/17 03:08:41;;;;;;;19.42;14.80;;;15.40;99.90;;;;;;5155648;27;20121;-81
2023/09/17 03:11:13;;;;;;;19.73;15.93;;;15.40;99.90;;;;;;5137919;27;20055;-81
2023/09/17 03:13:44;;;;;;;21.50;16.38;;;15.40;99.90;;;;;;5139042;27;20054;-82
2023/09/17 03:16:12;;;;;;;20.50;15.18;;;15.40;99.90;;;;;;5138284;27;20050;-82
2023/09/17 03:18:38;;;;;;;19.08;15.00;;;15.40;99.90;;;;;;5156101;27;20051;-82
2023/09/17 03:21:08;;;;;;;18.83;14.75;;;15.40;99.90;;;;;;5137535;27;20486;-82
2023/09/17 03:23:34;;;;;;;19.83;15.68;;;15.40;99.90;;;;;;5156108;27;20055;-81
2023/09/17 03:26:03;;;;;;;20.17;15.55;;;15.50;99.90;;;;;;5155863;27;20046;-82
2023/09/17 03:28:32;;;;;;;19.15;15.00;;;15.50;99.90;;;;;;5137856;27;20042;-81
2023/09/17 03:30:59;;;;;;;21.15;15.40;;;15.50;99.90;;;;;;5155872;27;20054;-81
2023/09/17 03:33:25;;;;;;;19.40;15.32;;;15.50;99.90;;;;;;5137376;27;20042;-82
2023/09/17 03:35:51;;;;;;;19.23;15.07;;;15.50;99.90;;;;;;5137450;27;20099;-82
2023/09/17 03:38:17;;;;;;;21.27;16.05;;;15.50;99.90;;;;;;5094917;27;20062;-82
2023/09/17 03:40:44;;;;;;;22.05;16.75;;;15.50;99.90;;;;;;5134747;27;20126;-83
2023/09/17 03:43:10;;;;;;;20.88;15.95;;;15.50;99.90;;;;;;5134956;27;20047;-82
2023/09/17 03:45:36;;;;;;;20.98;15.80;;;15.40;99.90;;;;;;5134823;27;20104;-82
2023/09/17 03:48:01;;;;;;;20.27;16.50;;;15.40;99.90;;;;;;5116034;27;20468;-82
2023/09/17 03:50:27;;;;;;;19.00;15.60;;;15.50;99.90;;;;;;5134739;27;20084;-82
2023/09/17 03:52:56;;;;;;;20.50;16.02;;;15.50;99.90;;;;;;5134875;27;20042;-83
2023/09/17 03:55:23;;;;;;;24.17;16.08;;;15.50;99.90;;;;;;5116624;27;20093;-83
2023/09/17 03:57:50;;;;;;;19.90;15.88;;;15.40;99.90;;;;;;5134614;27;20125;-83
2023/09/17 04:00:17;;;;;;;23.13;17.38;;;15.40;99.90;;;;;;5116125;27;20050;-83
2023/09/17 04:02:44;;;;;;;24.30;17.17;;;15.40;99.90;;;;;;5116612;27;20047;-84
2023/09/17 04:05:12;;;;;;;24.10;17.83;;;15.40;99.90;;;;;;5099518;27;20047;-83
2023/09/17 04:07:40;;;;;;;23.63;17.65;;;15.40;99.90;;;;;;5134142;27;20039;-83
2023/09/17 04:10:06;;;;;;;22.33;17.10;;;15.40;99.90;;;;;;5134574;27;20050;-82
2023/09/17 04:12:33;;;;;;;24.40;18.40;;;15.40;99.90;;;;;;5116370;27;20050;-83
2023/09/17 04:14:58;;;;;;;21.23;17.30;;;15.40;99.90;;;;;;5134632;27;20066;-83
2023/09/17 04:17:24;;;;;;;24.83;17.58;;;15.40;99.90;;;;;;5116330;27;20039;-82
2023/09/17 04:19:51;;;;;;;22.67;16.92;;;15.40;99.90;;;;;;5116001;27;20104;-83
2023/09/17 04:22:17;;;;;;;19.42;16.23;;;15.40;99.90;;;;;;5115903;28;20039;-82
2023/09/17 04:24:44;;;;;;;21.55;17.13;;;15.40;99.90;;;;;;5133209;27;20057;-83
2023/09/17 04:27:11;;;;;;;23.95;17.25;;;15.40;99.90;;;;;;5133875;27;20083;-82
2023/09/17 04:29:37;;;;;;;22.10;16.67;;;15.40;99.90;;;;;;5135838;27;20046;-83
2023/09/17 04:32:03;;;;;;;22.42;16.85;;;15.40;99.90;;;;;;5119651;27;20042;-83
2023/09/17 04:34:29;;;;;;;23.25;17.70;;;15.40;99.90;;;;;;5155076;27;20125;-84
2023/09/17 04:36:58;;;;;;;20.25;16.55;;;15.40;99.90;;;;;;5155042;27;20232;-83
2023/09/17 04:39:25;;;;;;;22.00;16.38;;;15.40;99.90;;;;;;5136142;27;20058;-83
2023/09/17 04:41:50;;;;;;;22.65;17.17;;;15.40;99.90;;;;;;5134368;28;20066;-83
2023/09/17 04:44:16;;;;;;;23.08;17.40;;;15.40;99.90;;;;;;5134341;28;20051;-83
2023/09/17 04:46:45;;;;;;;21.83;16.90;;;15.40;99.90;;;;;;5134051;28;20035;-83
2023/09/17 04:49:11;;;;;;;21.20;16.73;;;15.40;99.90;;;;;;5134133;28;20182;-83
2023/09/17 04:51:37;;;;;;;25.85;17.33;;;15.40;99.90;;;;;;5134193;27;20050;-83
2023/09/17 04:54:04;;;;;;;23.88;17.08;;;15.40;99.90;;;;;;5118809;27;20039;-83
2023/09/17 04:56:30;;;;;;;22.35;17.60;;;15.40;99.90;;;;;;5122232;27;20039;-83
2023/09/17 04:58:59;;;;;;;23.50;16.95;;;15.40;99.90;;;;;;5122157;27;20051;-82
2023/09/17 05:01:26;;;;;;;19.52;16.48;;;15.30;99.90;;;;;;5140783;27;20051;-82
2023/09/17 05:03:52;;;;;;;20.48;16.15;;;15.30;99.90;;;;;;5119384;27;20195;-82
2023/09/17 05:06:18;;;;;;;20.88;16.55;;;15.30;99.90;;;;;;5137915;27;20047;-82
2023/09/17 05:08:44;;;;;;;22.50;16.52;;;15.30;99.90;;;;;;5119683;27;20047;-82
2023/09/17 05:11:10;;;;;;;23.27;17.55;;;15.20;99.90;;;;;;5138078;27;20391;-81
2023/09/17 05:13:35;;;;;;;26.15;19.20;;;15.20;99.90;;;;;;5137787;27;20159;-81
2023/09/17 05:16:03;;;;;;;28.17;19.10;;;15.20;99.90;;;;;;5138109;27;20039;-80
2023/09/17 05:18:29;;;;;;;24.90;18.77;;;15.20;99.90;;;;;;5158324;27;20042;-79
2023/09/17 05:20:54;;;;;;;26.13;19.70;;;15.10;99.90;;;;;;5158636;27;20142;-80
2023/09/17 05:23:23;;;;;;;25.73;18.58;;;15.20;99.90;;;;;;5157919;27;20047;-76
2023/09/17 05:25:50;;;;;;;26.13;19.05;;;15.30;99.90;;;;;;5139665;27;20046;-81
2023/09/17 05:28:16;;;;;;;26.85;19.85;;;15.30;99.90;;;;;;5158436;27;20047;-81
2023/09/17 05:30:41;;;;;;;27.02;19.20;;;15.20;99.90;;;;;;5136266;27;20396;-79
2023/09/17 05:33:07;;;;;;;28.33;20.10;;;15.20;99.90;;;;;;5137480;27;20043;-81
2023/09/17 05:35:36;;;;;;;26.63;19.33;;;15.30;99.90;;;;;;5137552;27;20046;-80
2023/09/17 05:38:03;;;;;;;28.20;20.05;;;15.30;99.90;;;;;;5126289;27;20134;-80
2023/09/17 05:40:29;;;;;;;29.95;20.52;;;15.30;99.90;;;;;;5139091;27;20105;-81
2023/09/17 05:42:57;;;;;;;27.67;20.40;;;15.40;99.90;;;;;;5157424;27;20078;-80
2023/09/17 05:45:23;;;;;;;28.30;20.13;;;15.40;99.90;;;;;;5139522;27;20051;-81
2023/09/17 05:47:49;;;;;;;29.75;20.30;;;15.50;99.90;;;;;;5158137;27;20072;-80
2023/09/17 05:50:15;;;;;;;26.05;19.63;;;15.50;99.90;;;;;;5139610;27;20046;-81
2023/09/17 05:52:40;;;;;;;27.13;20.58;;;15.50;99.90;;;;;;5157930;27;20112;-81
2023/09/17 05:55:06;;;;;;;27.45;19.85;;;15.60;99.90;;;;;;5139229;27;20050;-81
2023/09/17 05:57:32;;;;;;;26.70;20.45;;;15.60;99.90;;;;;;5157837;27;20122;-80
2023/09/17 05:59:58;;;;;;;24.65;19.08;;;15.70;99.90;;;;;;5139005;27;20493;-80
2023/09/17 06:02:24;;;;;;;26.27;19.58;;;15.70;99.90;;;;;;5157594;27;20042;-82
2023/09/17 06:04:53;;;;;;;27.75;18.98;;;15.70;99.90;;;;;;5156788;27;20051;-81
2023/09/17 06:07:22;;;;;;;25.85;19.20;;;15.80;99.90;;;;;;5122246;27;20440;-81
2023/09/17 06:09:48;;;;;;;25.40;19.45;;;15.80;99.90;;;;;;5157638;27;20061;-79
2023/09/17 06:12:15;;;;;;;24.70;18.88;;;15.90;99.90;;;;;;5122514;27;20479;-81
2023/09/17 06:14:41;;;;;;;24.45;19.85;;;15.90;99.90;;;;;;5139206;27;20104;-81
2023/09/17 06:17:07;;;;;;;25.90;18.98;;;15.90;99.90;;;;;;5121818;27;20429;-80
2023/09/17 06:19:33;;;;;;;24.55;17.88;;;16.00;99.90;;;;;;5156938;27;20039;-80
2023/09/17 06:21:59;;;;;;;24.20;18.85;;;16.00;99.90;;;;;;5139175;27;20053;-81
2023/09/17 06:24:25;;;;;;;25.13;18.95;;;16.00;99.90;;;;;;5138723;27;20043;-82
2023/09/17 06:26:51;;;;;;;24.95;18.50;;;16.00;99.90;;;;;;5157047;27;20053;-82
2023/09/17 06:29:17;;;;;;;27.13;19.42;;;16.00;99.90;;;;;;5138495;27;20397;-81
2023/09/17 06:31:43;;;;;;;24.17;18.75;;;16.10;99.90;;;;;;5101420;27;20070;-80
2023/09/17 06:34:09;;;;;;;26.35;19.35;;;16.00;99.90;;;;;;5136479;27;20134;-81
2023/09/17 06:36:36;;;;;;;24.40;18.75;;;16.10;99.90;;;;;;5136410;27;20040;-81
2023/09/17 06:39:03;;;;;;;23.73;19.25;;;16.10;99.90;;;;;;5151642;27;20125;-80
2023/09/17 06:41:29;;;;;;;24.55;19.45;;;16.10;99.90;;;;;;5157063;27;20046;-80
2023/09/17 06:43:55;;;;;;;25.60;19.85;;;16.20;99.90;;;;;;5137899;27;20054;-80
2023/09/17 06:46:23;;;;;;;27.17;19.80;;;16.20;99.90;;;;;;5138548;27;20038;-81
2023/09/17 06:48:52;;;;;;;25.50;20.10;;;16.20;99.90;;;;;;5156895;27;20058;-81
2023/09/17 06:51:19;;;;;;;24.08;18.35;;;16.20;99.90;;;;;;5156838;27;20051;-81
2023/09/17 06:53:45;;;;;;;25.42;19.90;;;16.20;99.90;;;;;;5156159;27;20495;-66
2023/09/17 06:56:13;;;;;;;25.15;19.48;;;16.20;99.90;;;;;;5155457;27;20061;-67
2023/09/17 06:58:39;;;;;;;26.50;19.25;;;16.30;99.90;;;;;;5156342;27;20555;-67
2023/09/17 07:01:05;;;;;;;25.63;18.75;;;16.30;99.90;;;;;;5156155;27;20085;-67
2023/09/17 07:03:32;;;;;;;27.38;18.83;;;16.30;99.90;;;;;;5156452;27;20068;-67
2023/09/17 07:05:58;;;;;;;26.08;18.63;;;16.30;99.90;;;;;;5156308;27;20050;-66
2023/09/17 07:08:24;;;;;;;24.33;18.95;;;16.40;99.90;;;;;;5156583;27;20137;-66
2023/09/17 07:10:51;;;;;;;23.98;19.15;;;16.40;99.90;;;;;;5155981;27;20046;-66
2023/09/17 07:13:16;;;;;;;22.92;18.27;;;16.40;99.90;;;;;;5128622;27;20047;-67
2023/09/17 07:15:44;;;;;;;24.40;18.83;;;16.40;99.90;;;;;;5140218;27;20114;-67
2023/09/17 07:18:10;;;;;;;25.80;19.13;;;16.50;99.90;;;;;;5135483;27;20084;-66
2023/09/17 07:20:37;;;;;;;25.63;18.75;;;16.60;99.90;;;;;;5135590;27;20055;-67
2023/09/17 07:23:03;;;;;;;26.10;19.63;;;16.70;99.90;;;;;;5135109;27;20480;-66
2023/09/17 07:25:28;;;;;;;23.95;19.55;;;16.80;99.90;;;;;;5135408;27;20188;-67
2023/09/17 07:27:54;;;;;;;24.52;19.83;;;17.00;99.90;;;;;;5135186;27;20090;-67
2023/09/17 07:30:20;;;;;;;24.10;18.67;;;17.00;99.90;;;;;;5116678;27;20047;-67
2023/09/17 07:32:46;;;;;;;24.65;18.63;;;17.10;99.90;;;;;;5134988;27;20046;-67
2023/09/17 07:35:11;;;;;;;25.08;19.13;;;17.10;99.90;;;;;;5134581;27;20042;-67
2023/09/17 07:37:37;;;;;;;24.92;19.17;;;17.10;99.90;;;;;;5135120;27;20071;-67
2023/09/17 07:40:05;;;;;;;24.67;19.55;;;17.20;99.90;;;;;;5134555;27;20138;-66
2023/09/17 07:42:31;;;;;;;26.63;20.88;;;17.20;99.90;;;;;;5132199;27;20050;-68
2023/09/17 07:44:57;;;;;;;26.17;20.60;;;17.30;99.90;;;;;;5133835;27;20087;-69
2023/09/17 07:47:23;;;;;;;28.38;20.83;;;17.30;99.90;;;;;;5145886;27;20046;-66
2023/09/17 07:49:48;;;;;;;27.75;21.30;;;17.40;99.90;;;;;;5142970;27;20108;-66
2023/09/17 07:52:14;;;;;;;29.73;22.00;;;17.40;99.90;;;;;;5153151;27;20049;-66
2023/09/17 07:54:41;;;;;;;28.00;21.75;;;17.50;99.90;;;;;;5135566;27;20091;-65
2023/09/17 07:57:11;;;;;;;26.52;20.80;;;17.50;99.90;;;;;;5154764;27;20054;-66
2023/09/17 07:59:37;;;;;;;28.10;21.55;;;17.50;99.90;;;;;;5153511;27;20042;-66
2023/09/17 08:02:03;;;;;;;27.63;21.58;;;17.60;99.90;;;;;;5142852;27;20046;-66
2023/09/17 08:04:29;;;;;;;28.20;21.65;;;17.60;99.90;;;;;;5154397;27;20126;-66
2023/09/17 08:06:56;;;;;;;27.60;20.75;;;17.60;99.90;;;;;;5135933;27;20046;-66
2023/09/17 08:09:22;;;;;;;27.30;21.08;;;17.60;99.90;;;;;;5154859;27;20058;-66
2023/09/17 08:11:49;;;;;;;27.10;20.33;;;17.60;99.90;;;;;;5136037;27;20395;-65
2023/09/17 08:14:15;;;;;;;27.83;20.33;;;17.70;99.90;;;;;;5154397;27;20078;-66
2023/09/17 08:16:41;;;;;;;28.92;21.52;;;17.70;99.90;;;;;;5154868;27;20101;-66
2023/09/17 08:19:07;;;;;;;25.70;20.70;;;17.70;99.90;;;;;;5154434;27;20489;-66
2023/09/17 08:21:33;;;;;;;26.08;20.25;;;17.80;99.90;;;;;;5154431;27;20043;-66
2023/09/17 08:23:59;;;;;;;27.38;21.17;;;17.90;99.90;;;;;;5155099;27;20035;-66
2023/09/17 08:26:29;;;;;;;27.10;20.38;;;18.00;99.90;;;;;;5154383;27;20491;-66
2023/09/17 08:28:56;;;;;;;23.83;19.05;;;18.10;99.90;;;;;;5153669;27;20395;-67
2023/09/17 08:31:25;;;;;;;24.58;18.55;;;18.10;99.90;;;;;;5136749;27;20039;-66
2023/09/17 08:33:51;;;;;;;26.63;20.27;;;18.20;99.90;;;;;;5134019;28;20424;-66
2023/09/17 08:36:21;;;;;;;23.38;18.20;;;18.20;99.90;;;;;;5114899;28;20519;-66
2023/09/17 08:38:49;;;;;;;24.35;19.85;;;18.20;99.90;;;;;;5133728;27;20388;-66
2023/09/17 08:41:17;;;;;;;23.90;18.90;;;18.20;99.90;;;;;;5115611;28;20047;-66
2023/09/17 08:43:42;;;;;;;23.77;18.38;;;18.30;99.90;;;;;;5115134;28;20051;-65
2023/09/17 08:46:08;;;;;;;25.85;20.33;;;18.30;99.90;;;;;;5133766;28;20554;-66
2023/09/17 08:48:34;;;;;;;21.95;17.60;;;18.30;99.90;;;;;;5133139;28;20051;-66
2023/09/17 08:51:00;;;;;;;23.48;19.42;;;18.30;99.90;;;;;;5132854;28;20360;-66
2023/09/17 08:53:30;;;;;;;24.05;19.33;;;18.40;99.90;;;;;;5133590;28;20051;-65
2023/09/17 08:55:58;;;;;;;25.60;20.05;;;18.40;99.90;;;;;;5115324;28;20043;-66
2023/09/17 08:58:28;;;;;;;23.17;18.25;;;18.50;99.90;;;;;;5133211;28;20051;-65
2023/09/17 09:00:58;;;;;;;26.00;19.52;;;18.50;99.90;;;;;;5114709;28;20372;-65
2023/09/17 09:03:26;;;;;;;23.63;19.38;;;18.60;99.90;;;;;;5115752;28;20089;-65
2023/09/17 09:05:55;;;;;;;23.40;17.98;;;18.60;99.90;;;;;;5133356;28;20047;-65
2023/09/17 09:08:23;;;;;;;23.08;18.42;;;18.60;99.90;;;;;;5133424;28;20099;-65
2023/09/17 09:10:50;;;;;;;24.02;18.58;;;18.60;99.90;;;;;;5114751;28;20115;-65
2023/09/17 09:13:17;;;;;;;21.42;17.67;;;18.60;99.90;;;;;;5133334;28;20047;-65
2023/09/17 09:15:43;;;;;;;24.48;18.27;;;18.60;99.90;;;;;;5148928;27;20395;-65
2023/09/17 09:18:09;;;;;;;25.17;19.63;;;18.60;99.90;;;;;;5154155;27;20104;-65
2023/09/17 09:20:37;;;;;;;22.95;18.55;;;18.60;99.90;;;;;;5144827;27;20046;-65
2023/09/17 09:23:05;;;;;;;25.60;19.63;;;18.60;99.90;;;;;;5126293;27;20047;-66
2023/09/17 09:25:31;;;;;;;24.60;18.45;;;18.60;99.90;;;;;;5142672;27;20051;-65
2023/09/17 09:28:04;;;;;;;23.77;18.75;;;18.60;99.90;;;;;;5136923;27;20407;-66
2023/09/17 09:30:30;;;;;;;25.63;18.48;;;18.60;99.90;;;;;;5134635;27;20055;-66
2023/09/17 09:32:56;;;;;;;23.15;18.23;;;18.60;99.90;;;;;;5134256;27;20499;-65
2023/09/17 09:35:23;;;;;;;20.90;17.60;;;18.60;99.90;;;;;;5143580;27;20086;-65
2023/09/17 09:37:51;;;;;;;21.42;17.92;;;18.50;99.90;;;;;;5141934;27;20126;-64
2023/09/17 09:40:17;;;;;;;24.38;17.88;;;18.50;99.90;;;;;;5145034;27;20050;-65
2023/09/17 09:42:43;;;;;;;23.63;18.25;;;18.50;99.90;;;;;;5127788;27;20072;-65
2023/09/17 09:45:18;;;;;;;24.20;17.48;;;18.50;99.90;;;;;;5146247;27;20034;-65
2023/09/17 09:47:49;;;;;;;22.20;17.13;;;18.50;99.90;;;;;;5145539;27;20415;-65
2023/09/17 09:50:25;;;;;;;25.70;18.35;;;18.50;99.90;;;;;;5155343;27;20112;-65
2023/09/17 09:52:51;;;;;;;22.60;17.30;;;18.60;99.90;;;;;;5147044;27;20051;-65
2023/09/17 09:55:17;;;;;;;23.02;17.27;;;18.60;99.90;;;;;;5157092;27;20390;-66
2023/09/17 09:57:43;;;;;;;24.02;17.73;;;18.70;99.90;;;;;;5156710;27;20382;-65
2023/09/17 10:00:18;;;;;;;21.13;16.77;;;18.80;99.90;;;;;;5156738;27;20050;-67
2023/09/17 10:02:45;;;;;;;22.17;16.85;;;18.80;99.90;;;;;;5156372;27;20050;-66
2023/09/17 10:05:12;;;;;;;21.90;17.02;;;18.80;99.90;;;;;;5155823;27;20046;-65
2023/09/17 10:07:39;;;;;;;21.20;17.98;;;18.90;99.90;;;;;;5149420;27;20103;-65
2023/09/17 10:10:05;;;;;;;21.58;16.45;;;18.90;99.90;;;;;;5152091;27;20097;-65
2023/09/17 10:12:31;;;;;;;22.40;17.30;;;19.00;99.90;;;;;;5145833;27;20053;-66
2023/09/17 10:14:57;;;;;;;23.35;17.80;;;19.00;99.90;;;;;;5152669;27;20042;-65
2023/09/17 10:17:23;;;;;;;23.77;18.20;;;19.10;99.90;;;;;;5152047;27;20087;-66
2023/09/17 10:19:50;;;;;;;20.88;16.95;;;19.30;99.90;;;;;;5144666;27;20130;-66
2023/09/17 10:22:18;;;;;;;23.27;16.75;;;19.50;99.90;;;;;;5145791;27;20078;-66
2023/09/17 10:24:45;;;;;;;20.70;16.92;;;19.60;99.90;;;;;;5136768;27;20084;-66
2023/09/17 10:27:13;;;;;;;20.35;16.40;;;19.80;99.90;;;;;;5135866;27;20043;-66
2023/09/17 10:29:40;;;;;;;21.98;17.73;;;19.90;99.90;;;;;;5138149;27;20043;-66
2023/09/17 10:32:09;;;;;;;23.23;16.38;;;20.10;99.90;;;;;;5156786;27;20086;-67
2023/09/17 10:34:35;;;;;;;19.40;15.75;;;20.30;99.90;;;;;;5156228;27;20041;-66
2023/09/17 10:37:03;;;;;;;18.85;15.63;;;20.30;99.90;;;;;;5156224;27;20082;-66
2023/09/17 10:39:29;;;;;;;17.85;14.95;;;20.30;99.90;;;;;;5136990;27;20160;-65
2023/09/17 10:41:57;;;;;;;20.00;15.57;;;20.30;99.90;;;;;;5135987;27;20047;-65
2023/09/17 10:44:25;;;;;;;19.48;15.32;;;20.30;99.90;;;;;;5135508;27;20088;-64
2023/09/17 10:46:53;;;;;;;19.23;16.02;;;20.20;99.90;;;;;;5135400;27;20041;-66
2023/09/17 10:49:20;;;;;;;18.88;15.45;;;20.20;99.90;;;;;;5135123;27;20039;-65
2023/09/17 10:51:48;;;;;;;19.20;16.08;;;20.10;99.90;;;;;;5135037;27;20047;-66
2023/09/17 10:54:14;;;;;;;20.77;15.35;;;20.00;99.90;;;;;;5135474;27;20539;-65
2023/09/17 10:56:42;;;;;;;21.17;14.88;;;19.90;99.90;;;;;;5120539;27;20050;-65
2023/09/17 10:59:12;;;;;;;18.08;14.73;;;19.70;99.90;;;;;;5156322;27;20049;-65
2023/09/17 11:01:41;;;;;;;21.80;15.85;;;19.60;99.90;;;;;;5156125;27;20078;-65
2023/09/17 11:04:15;;;;;;;20.00;15.82;;;19.60;99.90;;;;;;5151957;27;20045;-66
2023/09/17 11:06:44;;;;;;;21.17;16.38;;;19.60;99.90;;;;;;5147873;27;20034;-66
2023/09/17 11:09:11;;;;;;;20.25;15.88;;;19.60;99.90;;;;;;5152930;27;20074;-66
2023/09/17 11:11:37;;;;;;;20.65;16.27;;;19.60;99.90;;;;;;5155885;27;20583;-65
2023/09/17 11:14:04;;;;;;;22.02;15.70;;;19.70;99.90;;;;;;5137905;27;20133;-66
2023/09/17 11:16:32;;;;;;;22.85;17.00;;;19.90;99.90;;;;;;5156206;27;20057;-66
2023/09/17 11:19:05;;;;;;;20.73;15.68;;;20.20;99.90;;;;;;5156205;27;20483;-66
2023/09/17 11:21:34;;;;;;;18.95;15.32;;;20.60;99.90;;;;;;5155582;27;20406;-67
2023/09/17 11:24:05;;;;;;;21.00;15.38;;;20.90;99.90;;;;;;5155708;27;20039;-66
2023/09/17 11:26:32;;;;;;;19.55;15.25;;;20.90;99.90;;;;;;5155230;27;20047;-66
2023/09/17 11:29:01;;;;;;;16.55;14.10;;;20.90;99.90;;;;;;5155689;27;20103;-66
2023/09/17 11:31:27;;;;;;;19.90;15.45;;;20.90;99.90;;;;;;5118977;27;20118;-66
2023/09/17 11:33:56;;;;;;;20.17;15.02;;;21.00;99.90;;;;;;5134759;27;20487;-66
2023/09/17 11:36:22;;;;;;;19.38;15.15;;;21.10;99.90;;;;;;5135162;27;20092;-66
2023/09/17 11:38:48;;;;;;;19.67;15.50;;;21.20;99.90;;;;;;5116991;27;20043;-66
2023/09/17 11:41:19;;;;;;;18.98;14.88;;;21.40;99.90;;;;;;5134852;27;20039;-66
2023/09/17 11:43:48;;;;;;;17.73;14.57;;;21.50;99.90;;;;;;5135147;27;20055;-66
2023/09/17 11:46:15;;;;;;;17.73;14.77;;;21.80;99.90;;;;;;5134865;27;20109;-66
2023/09/17 11:48:41;;;;;;;17.77;15.48;;;21.90;99.90;;;;;;5134652;27;20188;-66
2023/09/17 11:51:28;;;;;;;18.98;14.40;;;22.00;99.90;;;;;;5134413;27;20051;-66
2023/09/17 11:53:57;;;;;;;;;;;22.00;99.90;;;;;;5135102;27;20082;-66
2023/09/17 11:56:23;;;;;;;18.80;15.02;;;22.00;99.90;;;;;;5134729;27;19920;-66
2023/09/17 11:59:12;;;;;;;15.60;13.48;;;21.90;99.90;;;;;;5134059;27;20042;-66
2023/09/17 12:01:54;;;;;;;19.02;14.73;;;21.90;99.90;;;;;;5133546;27;20425;-66
2023/09/17 12:04:27;;;;;;;18.48;14.30;;;21.90;99.90;;;;;;5134370;27;20043;-66
2023/09/17 12:06:54;;;;;;;18.55;14.70;;;21.90;99.90;;;;;;5134421;27;20047;-65
2023/09/17 12:09:43;;;;;;;18.63;14.35;;;21.90;99.90;;;;;;5134311;27;20069;-66
2023/09/17 12:12:09;;;;;;;18.40;14.38;;;21.90;99.90;;;;;;5134095;27;20547;-65
2023/09/17 12:14:36;;;;;;;18.67;14.50;;;21.90;99.90;;;;;;5134499;27;20046;-66
2023/09/17 12:17:03;;;;;;;18.15;14.48;;;21.90;99.90;;;;;;5116237;28;20120;-66
2023/09/17 12:19:29;;;;;;;17.95;14.00;;;22.00;99.90;;;;;;5134470;27;20130;-66
2023/09/17 12:21:58;;;;;;;16.88;13.20;;;22.00;99.90;;;;;;5134388;27;20073;-66
2023/09/17 12:24:48;;;;;;;16.80;14.00;;;22.10;99.90;;;;;;5134594;27;20043;-67
2023/09/17 12:27:24;;;;;;;15.93;13.75;;;22.20;99.90;;;;;;5134450;27;20122;-66
2023/09/17 12:29:52;;;;;;;16.85;13.48;;;22.20;99.90;;;;;;5120017;27;20187;-66